sensor_id;sensor_type;location;lat;lon;timestamp;pressure;altitude;pressure_sealevel;temperature;humidity
7182;BME280;3632;42.724;23.298;2023-04-06T00:00:14;95197.75;;;2.37;81.95
7182;BME280;3632;42.724;23.298;2023-04-06T00:02:41;95184.38;;;2.37;81.95
7182;BME280;3632;42.724;23.298;2023-04-06T00:05:08;95182.75;;;2.36;82.56
7182;BME280;3632;42.724;23.298;2023-04-06T00:07:35;94804.56;;;-0.53;81.60
7182;BME280;3632;42.724;23.298;2023-04-06T00:10:02;95170.66;;;2.25;83.51
7182;BME280;3632;42.724;23.298;2023-04-06T00:12:31;95167.94;;;2.29;82.50
7182;BME280;3632;42.724;23.298;2023-04-06T00:14:58;95167.88;;;2.31;81.82
7182;BME280;3632;42.724;23.298;2023-04-06T00:17:26;95059.72;;;1.62;81.18
7182;BME280;3632;42.724;23.298;2023-04-06T00:19:53;94833.78;;;0.22;81.66
7182;BME280;3632;42.724;23.298;2023-04-06T00:22:20;95092.50;;;1.23;82.15
7182;BME280;3632;42.724;23.298;2023-04-06T00:24:47;95150.69;;;2.22;81.62
7182;BME280;3632;42.724;23.298;2023-04-06T00:27:14;94979.41;;;1.09;82.33
7182;BME280;3632;42.724;23.298;2023-04-06T00:29:43;95154.91;;;2.21;81.24
7182;BME280;3632;42.724;23.298;2023-04-06T00:32:10;95126.38;;;2.05;80.11
7182;BME280;3632;42.724;23.298;2023-04-06T00:34:37;95148.03;;;2.08;79.81
7182;BME280;3632;42.724;23.298;2023-04-06T00:37:04;95083.00;;;1.66;79.86
7182;BME280;3632;42.724;23.298;2023-04-06T00:39:31;95141.22;;;2.10;79.89
7182;BME280;3632;42.724;23.298;2023-04-06T00:41:58;94624.66;;;-1.74;78.83
7182;BME280;3632;42.724;23.298;2023-04-06T00:44:25;95147.34;;;2.04;79.15
7182;BME280;3632;42.724;23.298;2023-04-06T00:46:55;95149.59;;;2.10;79.45
7182;BME280;3632;42.724;23.298;2023-04-06T00:49:22;95147.53;;;2.18;79.52
7182;BME280;3632;42.724;23.298;2023-04-06T00:51:48;95077.31;;;1.62;78.93
7182;BME280;3632;42.724;23.298;2023-04-06T00:54:15;95143.81;;;2.25;79.82
7182;BME280;3632;42.724;23.298;2023-04-06T00:56:42;95278.44;;;2.33;78.50
7182;BME280;3632;42.724;23.298;2023-04-06T00:59:10;95150.09;;;2.34;79.28
7182;BME280;3632;42.724;23.298;2023-04-06T01:01:37;94607.63;;;-1.25;77.91
7182;BME280;3632;42.724;23.298;2023-04-06T01:04:05;95148.13;;;2.41;78.56
7182;BME280;3632;42.724;23.298;2023-04-06T01:06:32;95163.59;;;2.33;77.75
7182;BME280;3632;42.724;23.298;2023-04-06T01:08:59;95138.56;;;2.13;78.30
7182;BME280;3632;42.724;23.298;2023-04-06T01:11:26;95133.53;;;2.13;78.18
7182;BME280;3632;42.724;23.298;2023-04-06T01:13:53;95131.84;;;2.13;79.06
7182;BME280;3632;42.724;23.298;2023-04-06T01:16:20;95126.44;;;2.04;79.95
7182;BME280;3632;42.724;23.298;2023-04-06T01:18:47;95128.66;;;2.10;80.96
7182;BME280;3632;42.724;23.298;2023-04-06T01:21:15;94971.22;;;1.23;80.37
7182;BME280;3632;42.724;23.298;2023-04-06T01:23:44;95126.09;;;2.11;80.39
7182;BME280;3632;42.724;23.298;2023-04-06T01:26:12;95125.66;;;2.20;81.71
7182;BME280;3632;42.724;23.298;2023-04-06T01:28:39;95124.75;;;2.21;81.04
7182;BME280;3632;42.724;23.298;2023-04-06T01:31:07;95119.59;;;2.24;81.15
7182;BME280;3632;42.724;23.298;2023-04-06T01:33:34;94958.22;;;1.32;80.94
7182;BME280;3632;42.724;23.298;2023-04-06T01:36:01;95032.44;;;1.73;81.95
7182;BME280;3632;42.724;23.298;2023-04-06T01:38:28;94993.03;;;1.40;81.08
7182;BME280;3632;42.724;23.298;2023-04-06T01:40:57;94963.75;;;1.21;80.69
7182;BME280;3632;42.724;23.298;2023-04-06T01:43:24;94862.44;;;-0.21;80.84
7182;BME280;3632;42.724;23.298;2023-04-06T01:45:51;95161.06;;;1.61;81.13
7182;BME280;3632;42.724;23.298;2023-04-06T01:48:18;95025.00;;;1.70;81.87
7182;BME280;3632;42.724;23.298;2023-04-06T01:50:45;95062.63;;;1.19;81.27
7182;BME280;3632;42.724;23.298;2023-04-06T01:53:11;95105.81;;;2.32;81.10
7182;BME280;3632;42.724;23.298;2023-04-06T01:55:38;94808.06;;;0.54;81.41
7182;BME280;3632;42.724;23.298;2023-04-06T01:58:06;95105.59;;;2.36;81.76
7182;BME280;3632;42.724;23.298;2023-04-06T02:00:33;95102.44;;;2.33;81.11
7182;BME280;3632;42.724;23.298;2023-04-06T02:03:00;94905.81;;;1.09;81.24
7182;BME280;3632;42.724;23.298;2023-04-06T02:05:28;95097.63;;;2.28;81.93
7182;BME280;3632;42.724;23.298;2023-04-06T02:07:55;95102.13;;;2.04;82.37
7182;BME280;3632;42.724;23.298;2023-04-06T02:10:23;95170.88;;;2.03;82.44
7182;BME280;3632;42.724;23.298;2023-04-06T02:12:50;94925.81;;;1.10;82.44
7182;BME280;3632;42.724;23.298;2023-04-06T02:15:18;95092.06;;;2.21;81.92
7182;BME280;3632;42.724;23.298;2023-04-06T02:17:45;95151.25;;;2.28;82.88
7182;BME280;3632;42.724;23.298;2023-04-06T02:20:12;95089.53;;;2.21;82.91
7182;BME280;3632;42.724;23.298;2023-04-06T02:22:39;95082.16;;;2.18;82.76
7182;BME280;3632;42.724;23.298;2023-04-06T02:25:06;95096.53;;;2.16;83.65
7182;BME280;3632;42.724;23.298;2023-04-06T02:27:34;95083.19;;;2.14;82.94
7182;BME280;3632;42.724;23.298;2023-04-06T02:30:01;95058.81;;;1.99;83.41
7182;BME280;3632;42.724;23.298;2023-04-06T02:32:29;95086.97;;;2.23;83.56
7182;BME280;3632;42.724;23.298;2023-04-06T02:34:56;94288.19;;;-2.81;82.54
7182;BME280;3632;42.724;23.298;2023-04-06T02:37:23;95085.78;;;2.13;84.05
7182;BME280;3632;42.724;23.298;2023-04-06T02:39:50;95092.59;;;2.11;84.71
7182;BME280;3632;42.724;23.298;2023-04-06T02:42:17;95201.72;;;1.88;84.47
7182;BME280;3632;42.724;23.298;2023-04-06T02:44:44;94941.88;;;1.06;84.03
7182;BME280;3632;42.724;23.298;2023-04-06T02:47:11;95095.59;;;2.17;83.70
7182;BME280;3632;42.724;23.298;2023-04-06T02:49:39;95151.31;;;2.27;84.16
7182;BME280;3632;42.724;23.298;2023-04-06T02:52:06;95089.19;;;2.29;84.09
7182;BME280;3632;42.724;23.298;2023-04-06T02:54:33;95097.25;;;2.36;83.30
7182;BME280;3632;42.724;23.298;2023-04-06T02:57:00;95134.94;;;2.18;83.53
7182;BME280;3632;42.724;23.298;2023-04-06T02:59:26;95104.84;;;2.17;82.29
7182;BME280;3632;42.724;23.298;2023-04-06T03:01:53;95053.13;;;0.88;82.55
7182;BME280;3632;42.724;23.298;2023-04-06T03:04:20;95093.31;;;2.30;83.07
7182;BME280;3632;42.724;23.298;2023-04-06T03:06:53;94920.78;;;1.27;82.52
7182;BME280;3632;42.724;23.298;2023-04-06T03:09:20;95094.50;;;2.40;83.10
7182;BME280;3632;42.724;23.298;2023-04-06T03:11:47;95097.72;;;2.42;81.51
7182;BME280;3632;42.724;23.298;2023-04-06T03:14:14;94953.91;;;1.00;82.27
7182;BME280;3632;42.724;23.298;2023-04-06T03:16:43;95096.59;;;2.32;82.79
7182;BME280;3632;42.724;23.298;2023-04-06T03:19:10;95107.28;;;2.36;83.60
7182;BME280;3632;42.724;23.298;2023-04-06T03:21:37;95090.72;;;2.32;83.92
7182;BME280;3632;42.724;23.298;2023-04-06T03:24:06;94852.38;;;-0.01;83.64
7182;BME280;3632;42.724;23.298;2023-04-06T03:26:33;94908.22;;;1.27;83.13
7182;BME280;3632;42.724;23.298;2023-04-06T03:29:00;95090.28;;;2.41;84.14
7182;BME280;3632;42.724;23.298;2023-04-06T03:31:26;95077.41;;;2.29;83.30
7182;BME280;3632;42.724;23.298;2023-04-06T03:33:53;94882.16;;;0.24;83.43
7182;BME280;3632;42.724;23.298;2023-04-06T03:36:20;95133.31;;;2.17;84.81
7182;BME280;3632;42.724;23.298;2023-04-06T03:38:47;95037.97;;;1.80;84.37
7182;BME280;3632;42.724;23.298;2023-04-06T03:41:15;95096.19;;;2.40;84.25
7182;BME280;3632;42.724;23.298;2023-04-06T03:43:42;95090.19;;;2.42;83.58
7182;BME280;3632;42.724;23.298;2023-04-06T03:46:09;95090.56;;;2.35;84.47
7182;BME280;3632;42.724;23.298;2023-04-06T03:48:36;95094.28;;;2.27;86.00
7182;BME280;3632;42.724;23.298;2023-04-06T03:51:03;95089.31;;;2.26;85.54
7182;BME280;3632;42.724;23.298;2023-04-06T03:53:30;95087.25;;;2.17;85.40
7182;BME280;3632;42.724;23.298;2023-04-06T03:55:56;95099.59;;;2.21;86.24
7182;BME280;3632;42.724;23.298;2023-04-06T03:58:25;95126.38;;;2.22;85.42
7182;BME280;3632;42.724;23.298;2023-04-06T04:00:51;95092.00;;;2.23;85.02
7182;BME280;3632;42.724;23.298;2023-04-06T04:03:18;95088.81;;;2.19;85.87
7182;BME280;3632;42.724;23.298;2023-04-06T04:05:46;95085.44;;;2.20;86.24
7182;BME280;3632;42.724;23.298;2023-04-06T04:08:13;95092.06;;;2.21;85.65
7182;BME280;3632;42.724;23.298;2023-04-06T04:10:40;95088.97;;;1.99;85.85
7182;BME280;3632;42.724;23.298;2023-04-06T04:13:07;95085.44;;;2.20;85.74
7182;BME280;3632;42.724;23.298;2023-04-06T04:15:35;94965.41;;;1.22;86.36
7182;BME280;3632;42.724;23.298;2023-04-06T04:18:03;95024.09;;;1.37;87.04
7182;BME280;3632;42.724;23.298;2023-04-06T04:20:29;95084.97;;;2.12;85.95
7182;BME280;3632;42.724;23.298;2023-04-06T04:22:56;95084.31;;;2.09;86.28
7182;BME280;3632;42.724;23.298;2023-04-06T04:25:23;95090.13;;;2.09;84.90
7182;BME280;3632;42.724;23.298;2023-04-06T04:27:50;94779.91;;;-0.62;84.27
7182;BME280;3632;42.724;23.298;2023-04-06T04:30:17;95090.75;;;2.14;85.24
7182;BME280;3632;42.724;23.298;2023-04-06T04:32:45;95024.75;;;1.76;85.05
7182;BME280;3632;42.724;23.298;2023-04-06T04:35:12;95090.19;;;2.25;85.18
7182;BME280;3632;42.724;23.298;2023-04-06T04:37:40;95089.97;;;2.29;85.07
7182;BME280;3632;42.724;23.298;2023-04-06T04:40:08;95059.69;;;2.15;85.82
7182;BME280;3632;42.724;23.298;2023-04-06T04:42:35;95092.88;;;2.39;85.92
7182;BME280;3632;42.724;23.298;2023-04-06T04:45:02;95103.44;;;2.46;85.10
7182;BME280;3632;42.724;23.298;2023-04-06T04:47:29;95096.13;;;2.41;85.73
7182;BME280;3632;42.724;23.298;2023-04-06T04:49:57;94947.69;;;1.77;84.86
7182;BME280;3632;42.724;23.298;2023-04-06T04:52:24;95087.53;;;2.78;83.71
7182;BME280;3632;42.724;23.298;2023-04-06T04:54:51;94927.25;;;1.83;83.29
7182;BME280;3632;42.724;23.298;2023-04-06T04:57:18;95084.56;;;2.87;82.21
7182;BME280;3632;42.724;23.298;2023-04-06T04:59:45;95087.31;;;2.83;81.86
7182;BME280;3632;42.724;23.298;2023-04-06T05:02:12;95083.78;;;2.69;82.29
7182;BME280;3632;42.724;23.298;2023-04-06T05:04:39;94881.97;;;1.52;81.55
7182;BME280;3632;42.724;23.298;2023-04-06T05:07:08;94925.19;;;0.88;80.73
7182;BME280;3632;42.724;23.298;2023-04-06T05:09:35;94912.53;;;1.43;79.90
7182;BME280;3632;42.724;23.298;2023-04-06T05:12:02;95090.16;;;2.59;80.18
7182;BME280;3632;42.724;23.298;2023-04-06T05:14:29;95080.78;;;2.63;79.97
7182;BME280;3632;42.724;23.298;2023-04-06T05:16:56;95089.72;;;2.68;79.38
7182;BME280;3632;42.724;23.298;2023-04-06T05:19:23;94995.00;;;2.19;78.67
7182;BME280;3632;42.724;23.298;2023-04-06T05:21:50;95082.56;;;2.61;78.86
7182;BME280;3632;42.724;23.298;2023-04-06T05:24:18;95161.16;;;1.96;78.82
7182;BME280;3632;42.724;23.298;2023-04-06T05:26:45;95084.94;;;2.47;79.36
7182;BME280;3632;42.724;23.298;2023-04-06T05:29:12;94913.47;;;1.40;79.89
7182;BME280;3632;42.724;23.298;2023-04-06T05:31:39;95000.06;;;1.84;79.58
7182;BME280;3632;42.724;23.298;2023-04-06T05:34:06;95081.38;;;2.51;80.50
7182;BME280;3632;42.724;23.298;2023-04-06T05:36:34;95054.06;;;2.27;80.56
7182;BME280;3632;42.724;23.298;2023-04-06T05:39:01;95018.72;;;2.13;80.07
7182;BME280;3632;42.724;23.298;2023-04-06T05:41:30;95081.22;;;2.71;80.43
7182;BME280;3632;42.724;23.298;2023-04-06T05:43:57;94910.00;;;1.60;80.53
7182;BME280;3632;42.724;23.298;2023-04-06T05:46:24;95077.97;;;2.52;81.63
7182;BME280;3632;42.724;23.298;2023-04-06T05:48:50;95074.56;;;2.53;82.18
7182;BME280;3632;42.724;23.298;2023-04-06T05:51:17;95084.84;;;2.65;81.56
7182;BME280;3632;42.724;23.298;2023-04-06T05:53:44;95078.53;;;2.74;81.27
7182;BME280;3632;42.724;23.298;2023-04-06T05:56:11;94920.63;;;1.82;81.47
7182;BME280;3632;42.724;23.298;2023-04-06T05:58:39;95011.44;;;2.42;81.44
7182;BME280;3632;42.724;23.298;2023-04-06T06:01:06;95073.50;;;2.74;81.41
7182;BME280;3632;42.724;23.298;2023-04-06T06:03:34;95076.50;;;2.81;81.59
7182;BME280;3632;42.724;23.298;2023-04-06T06:06:01;95068.16;;;1.61;80.67
7182;BME280;3632;42.724;23.298;2023-04-06T06:08:29;95074.34;;;3.06;80.37
7182;BME280;3632;42.724;23.298;2023-04-06T06:10:56;94914.59;;;1.69;80.22
7182;BME280;3632;42.724;23.298;2023-04-06T06:13:23;95068.34;;;2.93;79.71
7182;BME280;3632;42.724;23.298;2023-04-06T06:15:52;95071.09;;;2.88;79.15
7182;BME280;3632;42.724;23.298;2023-04-06T06:18:19;95071.88;;;2.89;78.50
7182;BME280;3632;42.724;23.298;2023-04-06T06:20:45;95068.25;;;2.94;80.11
7182;BME280;3632;42.724;23.298;2023-04-06T06:23:12;95064.19;;;3.07;78.74
7182;BME280;3632;42.724;23.298;2023-04-06T06:25:39;95059.75;;;2.97;78.84
7182;BME280;3632;42.724;23.298;2023-04-06T06:28:06;95070.22;;;3.05;78.42
7182;BME280;3632;42.724;23.298;2023-04-06T06:30:33;95047.22;;;2.95;79.37
7182;BME280;3632;42.724;23.298;2023-04-06T06:33:01;95075.16;;;3.06;78.42
7182;BME280;3632;42.724;23.298;2023-04-06T06:35:28;94982.75;;;1.96;78.98
7182;BME280;3632;42.724;23.298;2023-04-06T06:37:55;94716.53;;;0.11;79.75
7182;BME280;3632;42.724;23.298;2023-04-06T06:40:22;94831.78;;;1.17;80.53
7182;BME280;3632;42.724;23.298;2023-04-06T06:42:51;95070.09;;;2.75;80.71
7182;BME280;3632;42.724;23.298;2023-04-06T06:45:18;94867.72;;;1.52;80.13
7182;BME280;3632;42.724;23.298;2023-04-06T06:47:45;95071.88;;;2.73;80.25
7182;BME280;3632;42.724;23.298;2023-04-06T06:50:14;95186.28;;;2.83;79.72
7182;BME280;3632;42.724;23.298;2023-04-06T06:52:41;95079.13;;;2.95;78.70
7182;BME280;3632;42.724;23.298;2023-04-06T06:55:09;95048.09;;;2.94;78.47
7182;BME280;3632;42.724;23.298;2023-04-06T06:57:37;95075.72;;;3.27;77.22
7182;BME280;3632;42.724;23.298;2023-04-06T07:00:05;95080.06;;;3.09;76.72
7182;BME280;3632;42.724;23.298;2023-04-06T07:02:34;95070.13;;;5.55;100.00
7182;BME280;3632;42.724;23.298;2023-04-06T07:05:01;95054.47;;;4.66;73.67
7182;BME280;3632;42.724;23.298;2023-04-06T07:07:29;95014.94;;;3.94;74.21
7182;BME280;3632;42.724;23.298;2023-04-06T07:09:56;95180.81;;;4.19;74.18
7182;BME280;3632;42.724;23.298;2023-04-06T07:12:23;95069.97;;;4.16;74.05
7182;BME280;3632;42.724;23.298;2023-04-06T07:14:50;94968.25;;;3.28;74.30
7182;BME280;3632;42.724;23.298;2023-04-06T07:17:17;95076.25;;;3.79;74.33
7182;BME280;3632;42.724;23.298;2023-04-06T07:19:43;95072.22;;;3.77;74.47
7182;BME280;3632;42.724;23.298;2023-04-06T07:22:10;94856.88;;;2.32;74.95
7182;BME280;3632;42.724;23.298;2023-04-06T07:24:39;95075.16;;;3.69;74.09
7182;BME280;3632;42.724;23.298;2023-04-06T07:27:06;94873.75;;;2.29;74.43
7182;BME280;3632;42.724;23.298;2023-04-06T07:29:32;95117.59;;;3.77;74.38
7182;BME280;3632;42.724;23.298;2023-04-06T07:31:59;94985.28;;;2.93;74.74
7182;BME280;3632;42.724;23.298;2023-04-06T07:34:26;95080.34;;;3.82;73.99
7182;BME280;3632;42.724;23.298;2023-04-06T07:36:53;95002.81;;;3.26;73.92
7182;BME280;3632;42.724;23.298;2023-04-06T07:39:20;95083.31;;;3.88;73.20
7182;BME280;3632;42.724;23.298;2023-04-06T07:41:48;95070.97;;;3.84;72.54
7182;BME280;3632;42.724;23.298;2023-04-06T07:44:15;95075.44;;;3.79;72.14
7182;BME280;3632;42.724;23.298;2023-04-06T07:46:42;95065.28;;;3.80;73.47
7182;BME280;3632;42.724;23.298;2023-04-06T07:49:09;95033.34;;;3.81;72.99
7182;BME280;3632;42.724;23.298;2023-04-06T07:51:36;94989.88;;;3.61;71.97
7182;BME280;3632;42.724;23.298;2023-04-06T07:54:03;94893.19;;;2.89;71.81
7182;BME280;3632;42.724;23.298;2023-04-06T07:56:30;95198.88;;;4.11;70.49
7182;BME280;3632;42.724;23.298;2023-04-06T07:58:59;95054.94;;;4.14;70.77
7182;BME280;3632;42.724;23.298;2023-04-06T08:01:27;95103.16;;;4.24;69.97
7182;BME280;3632;42.724;23.298;2023-04-06T08:03:55;95063.91;;;4.04;70.92
7182;BME280;3632;42.724;23.298;2023-04-06T08:06:22;95064.25;;;4.42;70.07
7182;BME280;3632;42.724;23.298;2023-04-06T08:08:49;95059.84;;;4.46;69.86
7182;BME280;3632;42.724;23.298;2023-04-06T08:11:15;95067.41;;;4.32;68.79
7182;BME280;3632;42.724;23.298;2023-04-06T08:13:42;94986.91;;;3.55;67.97
7182;BME280;3632;42.724;23.298;2023-04-06T08:16:11;95055.63;;;4.60;67.59
7182;BME280;3632;42.724;23.298;2023-04-06T08:18:38;95094.59;;;4.27;67.41
7182;BME280;3632;42.724;23.298;2023-04-06T08:21:05;95065.28;;;4.96;65.95
7182;BME280;3632;42.724;23.298;2023-04-06T08:23:32;94914.44;;;4.02;66.15
7182;BME280;3632;42.724;23.298;2023-04-06T08:25:59;95058.41;;;4.98;66.61
7182;BME280;3632;42.724;23.298;2023-04-06T08:28:26;95068.94;;;5.33;65.50
7182;BME280;3632;42.724;23.298;2023-04-06T08:30:53;94814.88;;;3.67;65.38
7182;BME280;3632;42.724;23.298;2023-04-06T08:33:21;94998.41;;;4.75;64.66
7182;BME280;3632;42.724;23.298;2023-04-06T08:35:48;94707.44;;;2.95;64.75
7182;BME280;3632;42.724;23.298;2023-04-06T08:38:15;95064.97;;;5.15;65.00
7182;BME280;3632;42.724;23.298;2023-04-06T08:40:42;95069.75;;;5.20;65.07
7182;BME280;3632;42.724;23.298;2023-04-06T08:43:13;94770.69;;;2.75;64.94
7182;BME280;3632;42.724;23.298;2023-04-06T08:45:41;95085.03;;;5.59;64.47
7182;BME280;3632;42.724;23.298;2023-04-06T08:48:08;95063.19;;;5.44;63.68
7182;BME280;3632;42.724;23.298;2023-04-06T08:50:38;95055.88;;;5.53;62.70
7182;BME280;3632;42.724;23.298;2023-04-06T08:53:06;94385.91;;;1.32;62.05
7182;BME280;3632;42.724;23.298;2023-04-06T08:55:33;95056.09;;;5.36;62.67
7182;BME280;3632;42.724;23.298;2023-04-06T08:58:01;95073.38;;;5.57;62.29
7182;BME280;3632;42.724;23.298;2023-04-06T09:00:29;94982.41;;;4.89;62.69
7182;BME280;3632;42.724;23.298;2023-04-06T09:02:57;95095.88;;;5.74;60.67
7182;BME280;3632;42.724;23.298;2023-04-06T09:05:25;94928.00;;;4.97;60.21
7182;BME280;3632;42.724;23.298;2023-04-06T09:07:55;95053.94;;;5.98;60.93
7182;BME280;3632;42.724;23.298;2023-04-06T09:10:22;95067.25;;;5.87;60.56
7182;BME280;3632;42.724;23.298;2023-04-06T09:12:51;94889.88;;;5.15;60.14
7182;BME280;3632;42.724;23.298;2023-04-06T09:15:19;95116.41;;;5.69;60.58
7182;BME280;3632;42.724;23.298;2023-04-06T09:17:46;95014.47;;;5.42;60.27
7182;BME280;3632;42.724;23.298;2023-04-06T09:20:14;94571.13;;;3.15;60.04
7182;BME280;3632;42.724;23.298;2023-04-06T09:22:42;94662.56;;;3.85;58.73
7182;BME280;3632;42.724;23.298;2023-04-06T09:25:18;94706.41;;;4.36;57.61
7182;BME280;3632;42.724;23.298;2023-04-06T09:27:46;95041.03;;;6.28;58.61
7182;BME280;3632;42.724;23.298;2023-04-06T09:30:13;94840.09;;;4.90;58.92
7182;BME280;3632;42.724;23.298;2023-04-06T09:32:46;95050.25;;;5.63;57.63
7182;BME280;3632;42.724;23.298;2023-04-06T09:35:17;95035.63;;;6.20;57.84
7182;BME280;3632;42.724;23.298;2023-04-06T09:37:46;94920.06;;;5.30;58.67
7182;BME280;3632;42.724;23.298;2023-04-06T09:40:15;94807.28;;;4.63;58.75
7182;BME280;3632;42.724;23.298;2023-04-06T09:42:45;95040.38;;;6.24;57.79
7182;BME280;3632;42.724;23.298;2023-04-06T09:45:12;95033.50;;;6.14;58.12
7182;BME280;3632;42.724;23.298;2023-04-06T09:47:40;95043.13;;;6.21;57.86
7182;BME280;3632;42.724;23.298;2023-04-06T09:50:10;95044.16;;;6.44;57.47
7182;BME280;3632;42.724;23.298;2023-04-06T09:52:41;94987.47;;;6.09;57.92
7182;BME280;3632;42.724;23.298;2023-04-06T09:55:09;95030.97;;;6.89;56.93
7182;BME280;3632;42.724;23.298;2023-04-06T09:57:44;95042.72;;;6.91;54.83
7182;BME280;3632;42.724;23.298;2023-04-06T10:00:14;94943.03;;;6.05;55.72
7182;BME280;3632;42.724;23.298;2023-04-06T10:02:50;94797.97;;;5.30;55.79
7182;BME280;3632;42.724;23.298;2023-04-06T10:05:22;94846.91;;;5.54;56.17
7182;BME280;3632;42.724;23.298;2023-04-06T10:07:54;95034.03;;;6.69;55.83
7182;BME280;3632;42.724;23.298;2023-04-06T10:10:22;94746.19;;;4.97;55.84
7182;BME280;3632;42.724;23.298;2023-04-06T10:12:51;94641.91;;;3.66;55.98
7182;BME280;3632;42.724;23.298;2023-04-06T10:15:18;94798.75;;;5.18;55.20
7182;BME280;3632;42.724;23.298;2023-04-06T10:17:45;95016.13;;;6.47;54.30
7182;BME280;3632;42.724;23.298;2023-04-06T10:20:16;95008.09;;;7.15;55.34
7182;BME280;3632;42.724;23.298;2023-04-06T10:22:53;94942.38;;;7.01;53.20
7182;BME280;3632;42.724;23.298;2023-04-06T10:25:28;94908.06;;;6.60;52.97
7182;BME280;3632;42.724;23.298;2023-04-06T10:28:05;95025.16;;;7.13;53.38
7182;BME280;3632;42.724;23.298;2023-04-06T10:30:33;95021.41;;;7.42;51.99
7182;BME280;3632;42.724;23.298;2023-04-06T10:33:01;95011.91;;;7.33;51.58
7182;BME280;3632;42.724;23.298;2023-04-06T10:35:36;95010.50;;;8.91;64.23
7182;BME280;3632;42.724;23.298;2023-04-06T10:38:04;95026.22;;;9.07;60.70
7182;BME280;3632;42.724;23.298;2023-04-06T10:40:31;95000.16;;;9.69;52.01
7182;BME280;3632;42.724;23.298;2023-04-06T10:43:09;95001.16;;;10.09;55.91
7182;BME280;3632;42.724;23.298;2023-04-06T10:45:37;94997.09;;;9.86;56.65
7182;BME280;3632;42.724;23.298;2023-04-06T10:48:13;95004.66;;;9.44;50.39
7182;BME280;3632;42.724;23.298;2023-04-06T10:50:41;95007.91;;;9.35;49.10
7182;BME280;3632;42.724;23.298;2023-04-06T10:53:08;94787.94;;;7.34;49.03
7182;BME280;3632;42.724;23.298;2023-04-06T10:55:39;95003.72;;;8.23;51.23
7182;BME280;3632;42.724;23.298;2023-04-06T10:58:08;94967.41;;;7.29;52.17
7182;BME280;3632;42.724;23.298;2023-04-06T11:00:35;95014.28;;;7.47;53.85
7182;BME280;3632;42.724;23.298;2023-04-06T11:03:02;94721.59;;;6.59;52.66
7182;BME280;3632;42.724;23.298;2023-04-06T11:05:29;94932.84;;;8.09;51.77
7182;BME280;3632;42.724;23.298;2023-04-06T11:07:56;94999.34;;;7.90;52.86
7182;BME280;3632;42.724;23.298;2023-04-06T11:10:23;95030.03;;;8.22;52.84
7182;BME280;3632;42.724;23.298;2023-04-06T11:12:54;94953.25;;;7.96;51.04
7182;BME280;3632;42.724;23.298;2023-04-06T11:15:22;94989.44;;;9.00;50.36
7182;BME280;3632;42.724;23.298;2023-04-06T11:17:50;94981.50;;;8.71;50.94
7182;BME280;3632;42.724;23.298;2023-04-06T11:20:17;94910.25;;;8.61;51.17
7182;BME280;3632;42.724;23.298;2023-04-06T11:22:49;94966.88;;;9.29;50.71
7182;BME280;3632;42.724;23.298;2023-04-06T11:25:17;94863.75;;;8.50;49.49
7182;BME280;3632;42.724;23.298;2023-04-06T11:27:44;94976.78;;;8.78;51.74
7182;BME280;3632;42.724;23.298;2023-04-06T11:30:12;94766.41;;;7.05;51.16
7182;BME280;3632;42.724;23.298;2023-04-06T11:32:42;94981.34;;;7.82;53.18
7182;BME280;3632;42.724;23.298;2023-04-06T11:35:11;94976.97;;;7.49;52.68
7182;BME280;3632;42.724;23.298;2023-04-06T11:37:39;94973.50;;;7.50;54.19
7182;BME280;3632;42.724;23.298;2023-04-06T11:40:08;94536.88;;;4.06;53.48
7182;BME280;3632;42.724;23.298;2023-04-06T11:42:35;94964.38;;;7.48;54.60
7182;BME280;3632;42.724;23.298;2023-04-06T11:45:02;94875.66;;;7.13;54.02
7182;BME280;3632;42.724;23.298;2023-04-06T11:47:32;94848.50;;;6.91;54.27
7182;BME280;3632;42.724;23.298;2023-04-06T11:50:07;94714.09;;;5.86;52.31
7182;BME280;3632;42.724;23.298;2023-04-06T11:52:34;94962.97;;;8.13;54.86
7182;BME280;3632;42.724;23.298;2023-04-06T11:55:11;94951.41;;;8.44;52.71
7182;BME280;3632;42.724;23.298;2023-04-06T11:57:38;94953.16;;;8.20;52.16
7182;BME280;3632;42.724;23.298;2023-04-06T12:00:06;94949.47;;;8.13;52.55
7182;BME280;3632;42.724;23.298;2023-04-06T12:02:33;94950.69;;;8.31;52.88
7182;BME280;3632;42.724;23.298;2023-04-06T12:05:00;94851.06;;;7.02;51.85
7182;BME280;3632;42.724;23.298;2023-04-06T12:07:28;95003.50;;;7.80;51.50
7182;BME280;3632;42.724;23.298;2023-04-06T12:09:55;94823.53;;;6.74;52.10
7182;BME280;3632;42.724;23.298;2023-04-06T12:12:22;94990.63;;;7.59;54.31
7182;BME280;3632;42.724;23.298;2023-04-06T12:14:49;94947.09;;;7.76;52.55
7182;BME280;3632;42.724;23.298;2023-04-06T12:17:16;94946.28;;;7.76;53.10
7182;BME280;3632;42.724;23.298;2023-04-06T12:19:42;94938.59;;;7.89;52.90
7182;BME280;3632;42.724;23.298;2023-04-06T12:22:09;94939.31;;;8.13;51.17
7182;BME280;3632;42.724;23.298;2023-04-06T12:24:37;94802.56;;;7.42;52.16
7182;BME280;3632;42.724;23.298;2023-04-06T12:27:04;94947.88;;;8.23;50.72
7182;BME280;3632;42.724;23.298;2023-04-06T12:29:31;94940.09;;;8.02;51.17
7182;BME280;3632;42.724;23.298;2023-04-06T12:31:58;94952.50;;;7.72;51.76
7182;BME280;3632;42.724;23.298;2023-04-06T12:34:26;94943.91;;;7.51;51.84
7182;BME280;3632;42.724;23.298;2023-04-06T12:36:53;94945.56;;;7.39;52.27
7182;BME280;3632;42.724;23.298;2023-04-06T12:39:21;94782.38;;;5.86;52.75
7182;BME280;3632;42.724;23.298;2023-04-06T12:41:49;94809.41;;;6.59;52.62
7182;BME280;3632;42.724;23.298;2023-04-06T12:44:16;94945.66;;;7.61;52.94
7182;BME280;3632;42.724;23.298;2023-04-06T12:46:43;94935.75;;;7.69;52.60
7182;BME280;3632;42.724;23.298;2023-04-06T12:49:10;94952.03;;;7.67;52.05
7182;BME280;3632;42.724;23.298;2023-04-06T12:51:37;94929.34;;;7.76;52.12
7182;BME280;3632;42.724;23.298;2023-04-06T12:54:04;94926.75;;;7.65;52.44
7182;BME280;3632;42.724;23.298;2023-04-06T12:56:31;94931.41;;;7.71;52.16
7182;BME280;3632;42.724;23.298;2023-04-06T12:58:59;94924.94;;;7.44;52.82
7182;BME280;3632;42.724;23.298;2023-04-06T13:01:26;94920.91;;;7.41;53.35
7182;BME280;3632;42.724;23.298;2023-04-06T13:03:53;94922.81;;;7.50;51.96
7182;BME280;3632;42.724;23.298;2023-04-06T13:06:20;94917.09;;;7.81;53.11
7182;BME280;3632;42.724;23.298;2023-04-06T13:08:47;94917.34;;;7.78;52.48
7182;BME280;3632;42.724;23.298;2023-04-06T13:11:15;94926.34;;;7.82;52.72
7182;BME280;3632;42.724;23.298;2023-04-06T13:13:42;94488.84;;;4.94;51.04
7182;BME280;3632;42.724;23.298;2023-04-06T13:16:10;94929.59;;;7.50;52.42
7182;BME280;3632;42.724;23.298;2023-04-06T13:18:37;94910.81;;;7.52;53.43
7182;BME280;3632;42.724;23.298;2023-04-06T13:21:05;94909.06;;;7.42;51.91
7182;BME280;3632;42.724;23.298;2023-04-06T13:23:32;94937.78;;;6.82;54.37